Time;durP1;ratioP1;P1;durP2;ratioP2;P2;SDS_P1;SDS_P2;PMS_P1;PMS_P2;Temp;Humidity;BMP_temperature;BMP_pressure;BME280_temperature;BME280_humidity;BME280_pressure;Samples;Min_cycle;Max_cycle;Signal;HPM_P1;HPM_P2
2024/03/01 00:01:12;;;;;;;83.05;36.97;;;2.80;99.90;;;;;;7597614;19;20523;-73
2024/03/01 00:03:45;;;;;;;82.93;36.80;;;2.90;99.90;;;;;;7607819;19;21100;-73
2024/03/01 00:06:17;;;;;;;104.45;42.97;;;2.90;99.90;;;;;;7604708;19;20053;-74
2024/03/01 00:08:50;;;;;;;87.57;37.67;;;2.80;99.90;;;;;;7604701;19;20018;-74
2024/03/01 00:11:24;;;;;;;90.03;37.47;;;2.70;99.90;;;;;;7603399;19;20011;-74
2024/03/01 00:13:56;;;;;;;87.45;38.95;;;2.80;99.90;;;;;;7596414;19;20019;-73
2024/03/01 00:16:29;;;;;;;89.15;37.97;;;2.70;99.90;;;;;;7591050;19;20298;-74
2024/03/01 00:19:01;;;;;;;97.05;39.25;;;2.70;99.90;;;;;;7602134;19;20142;-74
2024/03/01 00:21:33;;;;;;;94.57;40.92;;;2.70;99.90;;;;;;7605934;19;20708;-75
2024/03/01 00:24:07;;;;;;;95.03;38.47;;;2.70;99.90;;;;;;7584031;19;20907;-73
2024/03/01 00:26:45;;;;;;;81.43;37.30;;;2.70;99.90;;;;;;7604310;19;20021;-73
2024/03/01 00:29:17;;;;;;;91.63;37.15;;;2.70;99.90;;;;;;7591718;19;20056;-74
2024/03/01 00:31:50;;;;;;;81.70;36.35;;;2.80;99.90;;;;;;7598399;19;20014;-73
2024/03/01 00:34:22;;;;;;;83.30;36.90;;;2.80;99.90;;;;;;7606303;19;20017;-74
2024/03/01 00:36:54;;;;;;;95.32;38.05;;;2.70;99.90;;;;;;7609662;19;20018;-76
2024/03/01 00:39:26;;;;;;;97.57;39.75;;;2.70;99.90;;;;;;7598724;19;20081;-76
2024/03/01 00:41:59;;;;;;;80.28;35.05;;;2.50;99.90;;;;;;7609330;19;21384;-74
2024/03/01 00:44:31;;;;;;;95.95;39.22;;;2.50;99.90;;;;;;7607704;19;20022;-75
2024/03/01 00:47:03;;;;;;;84.45;37.95;;;2.60;99.90;;;;;;7607681;19;20018;-76
2024/03/01 00:49:36;;;;;;;79.77;35.33;;;2.60;99.90;;;;;;7585235;19;20090;-74
2024/03/01 00:52:08;;;;;;;82.65;36.95;;;2.60;99.90;;;;;;7607560;19;20013;-75
2024/03/01 00:54:41;;;;;;;79.13;35.17;;;2.70;99.90;;;;;;7602124;19;20448;-72
2024/03/01 00:57:14;;;;;;;92.88;36.47;;;2.80;99.90;;;;;;7610550;19;20050;-75
2024/03/01 00:59:46;;;;;;;80.15;36.20;;;2.70;99.90;;;;;;7607743;19;20064;-75
2024/03/01 01:02:20;;;;;;;82.68;38.88;;;2.70;99.90;;;;;;7606186;19;20026;-74
2024/03/01 01:05:12;;;;;;;77.72;33.78;;;2.70;99.90;;;;;;7606656;19;20098;-76
2024/03/01 01:07:45;;;;;;;91.57;38.05;;;2.80;99.90;;;;;;7604290;19;20018;-75
2024/03/01 01:10:18;;;;;;;87.87;36.53;;;2.90;99.90;;;;;;7586707;19;20048;-74
2024/03/01 01:12:50;;;;;;;84.07;36.22;;;2.90;99.90;;;;;;7606850;19;20019;-73
2024/03/01 01:15:23;;;;;;;72.82;34.78;;;2.90;99.90;;;;;;7592032;19;20022;-76
2024/03/01 01:17:56;;;;;;;87.47;37.33;;;2.90;99.90;;;;;;7609792;19;20023;-73
2024/03/01 01:20:28;;;;;;;78.97;34.50;;;2.90;99.90;;;;;;7606815;19;20030;-76
2024/03/01 01:23:01;;;;;;;82.75;36.55;;;2.90;99.90;;;;;;7608553;19;20119;-73
2024/03/01 01:25:33;;;;;;;82.65;35.72;;;2.80;99.90;;;;;;7589116;19;20021;-74
2024/03/01 01:28:07;;;;;;;86.95;35.67;;;2.80;99.90;;;;;;7603392;19;20355;-73
2024/03/01 01:30:40;;;;;;;;;;;2.70;99.90;;;;;;7601746;19;20022;-73
2024/03/01 01:33:12;;;;;;;82.20;35.95;;;2.70;99.90;;;;;;7605839;19;20004;-75
2024/03/01 01:35:45;;;;;;;95.10;40.45;;;2.70;99.90;;;;;;7600159;19;20014;-74
2024/03/01 01:38:17;;;;;;;89.20;37.72;;;2.60;99.90;;;;;;7601541;19;20145;-73
2024/03/01 01:40:50;;;;;;;93.18;37.97;;;2.60;99.90;;;;;;7598406;19;20022;-74
2024/03/01 01:43:23;;;;;;;93.45;39.83;;;2.60;99.90;;;;;;7604612;19;20014;-75
2024/03/01 01:45:55;;;;;;;92.85;38.65;;;2.50;99.90;;;;;;7602843;19;20057;-75
2024/03/01 01:48:28;;;;;;;88.55;38.47;;;2.40;99.90;;;;;;7602382;19;20022;-75
2024/03/01 01:51:01;;;;;;;99.40;39.30;;;2.40;99.90;;;;;;7602456;19;20479;-74
2024/03/01 01:53:34;;;;;;;105.85;43.22;;;2.50;99.90;;;;;;7551748;19;20048;-73
2024/03/01 01:56:07;;;;;;;134.05;42.80;;;2.40;99.90;;;;;;7576273;19;20019;-75
2024/03/01 01:58:41;;;;;;;235.47;56.77;;;2.50;99.90;;;;;;7604283;19;20026;-73
2024/03/01 02:01:15;;;;;;;143.65;46.60;;;2.40;99.90;;;;;;7608023;19;20788;-74
2024/03/01 02:03:49;;;;;;;320.20;65.30;;;2.40;99.90;;;;;;7594284;19;20042;-73
2024/03/01 02:06:21;;;;;;;118.97;47.60;;;2.40;99.90;;;;;;7604642;19;20060;-72
2024/03/01 02:08:53;;;;;;;117.32;48.28;;;2.40;99.90;;;;;;7599579;19;21071;-76
2024/03/01 02:11:26;;;;;;;127.97;45.63;;;2.50;99.90;;;;;;7603748;19;20424;-76
2024/03/01 02:13:58;;;;;;;141.57;46.97;;;2.50;99.90;;;;;;7604189;19;20025;-73
2024/03/01 02:16:31;;;;;;;115.55;45.72;;;2.50;99.90;;;;;;7604859;19;20023;-74
2024/03/01 02:19:14;;;;;;;131.10;45.40;;;2.60;99.90;;;;;;7605196;19;20018;-74
2024/03/01 02:22:02;;;;;;;110.10;44.45;;;2.50;99.90;;;;;;7583608;19;21317;-75
2024/03/01 02:24:37;;;;;;;108.90;41.97;;;2.60;99.90;;;;;;7601408;19;20060;-75
2024/03/01 02:27:10;;;;;;;98.70;42.53;;;2.60;99.90;;;;;;7596580;19;20346;-75
2024/03/01 02:29:42;;;;;;;140.63;45.97;;;2.60;99.90;;;;;;7600009;19;20022;-74
2024/03/01 02:32:15;;;;;;;127.95;45.42;;;2.60;99.90;;;;;;7604529;19;20045;-73
2024/03/01 02:34:47;;;;;;;185.53;56.50;;;2.70;99.90;;;;;;7599948;19;20015;-74
2024/03/01 02:37:19;;;;;;;109.00;43.45;;;2.70;99.90;;;;;;7606349;19;20129;-74
2024/03/01 02:39:52;;;;;;;104.00;42.25;;;2.60;99.90;;;;;;7596499;19;20607;-74
2024/03/01 02:42:24;;;;;;;103.13;43.65;;;2.60;99.90;;;;;;7607873;19;20011;-73
2024/03/01 02:44:56;;;;;;;128.98;48.28;;;2.60;99.90;;;;;;7596549;19;20038;-73
2024/03/01 02:47:29;;;;;;;134.60;47.90;;;2.60;99.90;;;;;;7595162;19;20018;-74
2024/03/01 02:50:01;;;;;;;114.50;45.97;;;2.40;99.90;;;;;;7553856;19;24156;-74
2024/03/01 02:52:35;;;;;;;129.13;46.83;;;2.40;99.90;;;;;;7589693;19;20631;-73
2024/03/01 02:55:08;;;;;;;159.20;48.05;;;2.30;99.90;;;;;;7598234;19;20029;-73
2024/03/01 02:57:40;;;;;;;187.07;59.10;;;2.50;99.90;;;;;;7602854;19;20010;-73
2024/03/01 03:00:14;;;;;;;158.55;55.00;;;2.40;99.90;;;;;;7604807;19;20011;-74
2024/03/01 03:02:46;;;;;;;215.65;63.53;;;2.30;99.90;;;;;;7602216;19;20029;-74
2024/03/01 03:05:19;;;;;;;154.77;53.90;;;2.30;99.90;;;;;;7604472;19;20022;-73
2024/03/01 03:07:51;;;;;;;100.45;44.83;;;2.30;99.90;;;;;;7601885;19;20017;-73
2024/03/01 03:10:24;;;;;;;127.57;49.03;;;2.40;99.90;;;;;;7599524;19;20077;-73
2024/03/01 03:12:56;;;;;;;188.55;61.67;;;2.40;99.90;;;;;;7605529;19;20045;-74
2024/03/01 03:15:29;;;;;;;121.75;49.17;;;2.40;99.90;;;;;;7606791;19;20018;-73
2024/03/01 03:18:01;;;;;;;146.68;50.47;;;2.30;99.90;;;;;;7609241;19;20041;-74
2024/03/01 03:20:35;;;;;;;106.33;41.73;;;2.40;99.90;;;;;;7609816;19;20307;-74
2024/03/01 03:23:08;;;;;;;138.90;53.47;;;2.50;99.90;;;;;;7610752;19;20299;-73
2024/03/01 03:25:40;;;;;;;133.05;51.97;;;2.60;99.90;;;;;;7612430;19;20023;-73
2024/03/01 03:28:14;;;;;;;126.53;49.28;;;2.60;99.90;;;;;;7606736;19;20037;-75
2024/03/01 03:30:47;;;;;;;165.23;55.65;;;2.60;99.90;;;;;;7615368;19;20018;-73
2024/03/01 03:33:20;;;;;;;117.00;47.60;;;2.70;99.90;;;;;;7607400;19;20034;-73
2024/03/01 03:35:52;;;;;;;136.97;48.40;;;2.80;99.90;;;;;;7616134;19;20018;-74
2024/03/01 03:38:25;;;;;;;147.00;48.85;;;2.80;99.90;;;;;;7612409;19;21347;-76
2024/03/01 03:40:57;;;;;;;165.30;55.65;;;2.80;99.90;;;;;;7614455;19;20019;-74
2024/03/01 03:43:29;;;;;;;148.50;55.33;;;2.70;99.90;;;;;;7616763;19;21478;-74
2024/03/01 03:46:01;;;;;;;156.98;55.40;;;2.70;99.90;;;;;;7618826;19;20018;-73
2024/03/01 03:48:34;;;;;;;255.23;69.70;;;2.70;99.90;;;;;;7624363;19;20024;-73
2024/03/01 03:51:06;;;;;;;177.45;59.75;;;2.60;99.90;;;;;;7635872;19;20010;-73
2024/03/01 03:53:39;;;;;;;163.83;58.10;;;2.70;99.90;;;;;;7619213;19;20019;-74
2024/03/01 03:56:11;;;;;;;132.02;52.40;;;2.70;99.90;;;;;;7624038;19;20014;-75
2024/03/01 03:58:43;;;;;;;174.50;59.72;;;2.80;99.90;;;;;;7621996;19;20378;-76
2024/03/01 04:01:16;;;;;;;141.07;53.65;;;2.80;99.90;;;;;;7624579;19;20023;-75
2024/03/01 04:03:52;;;;;;;144.82;56.35;;;2.90;99.90;;;;;;7616666;19;20042;-75
2024/03/01 04:06:24;;;;;;;254.00;69.28;;;2.90;99.90;;;;;;7626981;19;20023;-75
2024/03/01 04:08:56;;;;;;;140.43;54.45;;;2.90;99.90;;;;;;7618584;19;20544;-75
2024/03/01 04:11:29;;;;;;;634.55;98.50;;;3.00;99.90;;;;;;7622682;19;20142;-75
2024/03/01 04:14:02;;;;;;;169.32;57.20;;;3.00;99.90;;;;;;7617888;19;20369;-75
2024/03/01 04:16:35;;;;;;;295.77;69.72;;;3.00;99.90;;;;;;7621325;19;20006;-74
2024/03/01 04:19:08;;;;;;;235.07;68.85;;;3.10;99.90;;;;;;7616142;19;20023;-76
2024/03/01 04:21:42;;;;;;;587.53;105.00;;;3.10;99.90;;;;;;7603100;19;20026;-74
2024/03/01 04:24:16;;;;;;;452.05;87.60;;;3.10;99.90;;;;;;7617435;19;20369;-76
2024/03/01 04:26:48;;;;;;;617.13;116.60;;;3.10;99.90;;;;;;7617720;19;20137;-76
2024/03/01 04:29:21;;;;;;;547.53;110.90;;;3.20;99.90;;;;;;7606929;19;20134;-76
2024/03/01 04:31:53;;;;;;;301.00;69.88;;;3.20;99.90;;;;;;7613184;19;20062;-75
2024/03/01 04:34:26;;;;;;;232.90;70.53;;;3.20;99.90;;;;;;7612702;19;20023;-73
2024/03/01 04:36:59;;;;;;;443.20;97.70;;;3.30;99.90;;;;;;7614234;19;20014;-73
2024/03/01 04:39:32;;;;;;;484.80;99.77;;;3.30;99.90;;;;;;7595854;19;20298;-75
2024/03/01 04:42:04;;;;;;;405.25;95.97;;;3.30;99.90;;;;;;7610666;19;20019;-75
2024/03/01 04:44:41;;;;;;;204.05;70.28;;;3.30;99.90;;;;;;7609739;19;20286;-76
2024/03/01 04:47:13;;;;;;;307.30;80.57;;;3.30;99.90;;;;;;7614264;19;20027;-76
2024/03/01 04:49:46;;;;;;;415.58;94.32;;;3.30;99.90;;;;;;7612098;19;20026;-73
2024/03/01 04:52:18;;;;;;;217.25;70.93;;;3.30;99.90;;;;;;7601066;19;20017;-76
2024/03/01 04:54:51;;;;;;;250.73;77.03;;;3.30;99.90;;;;;;7597486;19;20043;-74
2024/03/01 04:57:23;;;;;;;227.52;65.07;;;3.30;99.90;;;;;;7611662;19;20539;-76
2024/03/01 04:59:55;;;;;;;235.13;67.40;;;3.40;99.90;;;;;;7608506;19;20018;-75
2024/03/01 05:02:28;;;;;;;259.42;67.43;;;3.50;99.90;;;;;;7605638;19;20042;-76
2024/03/01 05:05:01;;;;;;;297.27;76.45;;;3.50;99.90;;;;;;7607696;19;20018;-74
2024/03/01 05:07:33;;;;;;;407.95;95.45;;;3.50;99.90;;;;;;7598443;19;20525;-73
2024/03/01 05:10:09;;;;;;;207.85;70.95;;;3.40;99.90;;;;;;7607879;19;21042;-74
2024/03/01 05:12:42;;;;;;;254.90;75.70;;;3.40;99.90;;;;;;7611827;19;20022;-73
2024/03/01 05:15:16;;;;;;;224.00;74.40;;;3.40;99.90;;;;;;7614677;19;20547;-74
2024/03/01 05:17:48;;;;;;;256.23;72.85;;;3.30;99.90;;;;;;7612554;19;20042;-73
2024/03/01 05:20:21;;;;;;;233.70;71.00;;;3.20;99.90;;;;;;7611281;19;20016;-73
2024/03/01 05:22:53;;;;;;;253.63;74.63;;;3.30;99.90;;;;;;7611065;19;20054;-73
2024/03/01 05:25:26;;;;;;;381.17;91.63;;;3.30;99.90;;;;;;7588264;19;20007;-76
2024/03/01 05:27:59;;;;;;;292.25;81.82;;;3.20;99.90;;;;;;7604280;19;20015;-73
2024/03/01 05:30:35;;;;;;;275.67;79.00;;;3.30;99.90;;;;;;7583117;19;20015;-75
2024/03/01 05:33:22;;;;;;;170.63;58.65;;;3.30;99.90;;;;;;7597344;19;20026;-75
2024/03/01 05:35:54;;;;;;;175.30;63.42;;;3.30;99.90;;;;;;7591815;19;20014;-75
2024/03/01 05:38:26;;;;;;;166.27;59.30;;;3.30;99.90;;;;;;7581611;19;20011;-75
2024/03/01 05:41:00;;;;;;;170.30;60.65;;;3.40;99.90;;;;;;7591610;19;20023;-74
2024/03/01 05:43:32;;;;;;;126.75;52.92;;;3.40;99.90;;;;;;7599616;19;20390;-73
2024/03/01 05:46:15;;;;;;;147.75;58.58;;;3.50;99.90;;;;;;7598104;19;20486;-74
2024/03/01 05:48:48;;;;;;;145.13;57.25;;;3.50;99.90;;;;;;7591439;19;20019;-74
2024/03/01 05:51:20;;;;;;;163.02;60.33;;;3.50;99.90;;;;;;7607989;19;21260;-75
2024/03/01 05:53:52;;;;;;;174.95;61.60;;;3.50;99.90;;;;;;7604667;19;20379;-73
2024/03/01 05:56:25;;;;;;;146.00;56.33;;;3.40;99.90;;;;;;7601457;19;20356;-74
2024/03/01 05:58:57;;;;;;;122.35;50.60;;;3.40;99.90;;;;;;7593849;19;20048;-73
2024/03/01 06:01:30;;;;;;;139.38;53.20;;;3.50;99.90;;;;;;7605429;19;20484;-73
2024/03/01 06:04:09;;;;;;;188.77;61.80;;;3.40;99.90;;;;;;7578096;19;20022;-73
2024/03/01 06:06:42;;;;;;;137.88;53.30;;;3.50;99.90;;;;;;7575085;19;20274;-72
2024/03/01 06:09:16;;;;;;;149.63;57.23;;;3.50;99.90;;;;;;7582680;19;20010;-73
2024/03/01 06:11:48;;;;;;;126.32;50.55;;;3.50;99.90;;;;;;7593626;19;20030;-73
2024/03/01 06:14:21;;;;;;;163.48;57.50;;;3.50;99.90;;;;;;7581390;19;20606;-75
2024/03/01 06:16:53;;;;;;;131.30;51.67;;;3.50;99.90;;;;;;7567689;19;20014;-73
2024/03/01 06:19:26;;;;;;;149.35;55.95;;;3.50;99.90;;;;;;7584629;19;20028;-75
2024/03/01 06:21:59;;;;;;;151.30;55.35;;;3.50;99.90;;;;;;7582859;19;20018;-73
2024/03/01 06:24:32;;;;;;;;;;;3.50;99.90;;;;;;7584040;19;20414;-72
2024/03/01 06:27:04;;;;;;;146.35;54.78;;;3.50;99.90;;;;;;7532033;19;19922;-75
2024/03/01 06:29:38;;;;;;;149.07;53.85;;;3.40;99.90;;;;;;7580304;19;20034;-75
2024/03/01 06:32:11;;;;;;;157.90;57.53;;;3.40;99.90;;;;;;7583980;19;20018;-72
2024/03/01 06:34:43;;;;;;;135.82;53.47;;;3.40;99.90;;;;;;7579774;19;20014;-73
2024/03/01 06:37:18;;;;;;;132.50;51.97;;;3.50;99.90;;;;;;7560648;19;20920;-73
2024/03/01 06:39:50;;;;;;;133.20;50.42;;;3.50;99.90;;;;;;7596940;19;20018;-72
2024/03/01 06:42:23;;;;;;;121.80;48.17;;;3.60;99.90;;;;;;7587407;19;20054;-75
2024/03/01 06:44:56;;;;;;;133.00;51.63;;;3.60;99.90;;;;;;7581692;19;21133;-75
2024/03/01 06:47:33;;;;;;;138.82;52.00;;;3.60;99.90;;;;;;7595260;19;20014;-75
2024/03/01 06:50:08;;;;;;;112.68;45.10;;;3.60;99.90;;;;;;7545667;19;20018;-75
2024/03/01 06:52:41;;;;;;;138.73;53.13;;;3.60;99.90;;;;;;7604003;19;20018;-75
2024/03/01 06:55:14;;;;;;;125.43;49.25;;;3.60;99.90;;;;;;7586933;19;20018;-74
2024/03/01 06:57:47;;;;;;;129.80;50.67;;;3.50;99.90;;;;;;7601986;19;20010;-75
2024/03/01 07:00:20;;;;;;;126.85;52.38;;;3.60;99.90;;;;;;7587838;19;20021;-72
2024/03/01 07:02:53;;;;;;;130.95;48.85;;;3.60;99.90;;;;;;7589215;19;20117;-75
2024/03/01 07:05:27;;;;;;;130.43;51.47;;;3.60;99.90;;;;;;7603653;19;20018;-74
2024/03/01 07:07:59;;;;;;;114.90;48.00;;;3.60;99.90;;;;;;7592197;19;20021;-74
2024/03/01 07:10:32;;;;;;;112.07;48.20;;;3.60;99.90;;;;;;7602105;19;20641;-73
2024/03/01 07:13:05;;;;;;;117.72;49.83;;;3.70;99.90;;;;;;7598838;19;20014;-72
2024/03/01 07:15:37;;;;;;;116.75;46.65;;;3.70;99.90;;;;;;7608486;19;20578;-75
2024/03/01 07:18:09;;;;;;;117.60;49.08;;;3.70;99.90;;;;;;7591216;19;20034;-74
2024/03/01 07:20:42;;;;;;;114.07;48.20;;;3.80;99.90;;;;;;7570906;19;20021;-72
2024/03/01 07:23:19;;;;;;;115.93;48.97;;;3.80;99.90;;;;;;7605152;19;20267;-75
2024/03/01 07:25:51;;;;;;;111.25;47.15;;;3.80;99.90;;;;;;7605649;19;20017;-75
2024/03/01 07:28:24;;;;;;;119.60;47.17;;;3.80;99.90;;;;;;7605279;19;20114;-73
2024/03/01 07:30:56;;;;;;;111.30;47.58;;;3.90;99.90;;;;;;7597079;19;20024;-72
2024/03/01 07:33:30;;;;;;;102.25;43.25;;;3.90;99.90;;;;;;7593866;19;20602;-74
2024/03/01 07:36:03;;;;;;;121.80;47.15;;;4.00;99.90;;;;;;7579246;19;21107;-73
2024/03/01 07:38:35;;;;;;;107.57;46.07;;;4.10;99.90;;;;;;7588565;19;20015;-74
2024/03/01 07:41:08;;;;;;;101.93;43.50;;;4.20;99.90;;;;;;7606760;19;20048;-72
2024/03/01 07:43:40;;;;;;;100.93;43.58;;;4.20;99.90;;;;;;7601462;19;20041;-73
2024/03/01 07:46:13;;;;;;;103.22;44.10;;;4.30;99.90;;;;;;7609383;19;20019;-72
2024/03/01 07:48:46;;;;;;;103.73;43.20;;;4.40;99.90;;;;;;7603357;19;20014;-74
2024/03/01 07:51:18;;;;;;;94.73;41.70;;;4.50;99.90;;;;;;7608455;19;20271;-75
2024/03/01 07:53:50;;;;;;;108.38;45.40;;;4.60;99.90;;;;;;7604343;19;20010;-74
2024/03/01 07:56:23;;;;;;;112.75;44.72;;;4.60;99.90;;;;;;7605607;19;20099;-74
2024/03/01 07:59:03;;;;;;;111.00;47.15;;;4.60;99.90;;;;;;7605667;19;20034;-75
2024/03/01 08:01:37;;;;;;;109.15;44.40;;;4.70;99.90;;;;;;7606098;19;20711;-73
2024/03/01 08:04:11;;;;;;;113.82;44.88;;;4.80;99.90;;;;;;7606161;19;20034;-72
2024/03/01 08:06:43;;;;;;;;;;;4.80;99.90;;;;;;7606539;19;20018;-72
2024/03/01 08:09:17;;;;;;;104.00;43.47;;;4.90;99.90;;;;;;7607138;19;19958;-73
2024/03/01 08:11:50;;;;;;;119.65;47.70;;;4.90;99.90;;;;;;7605582;19;20350;-72
2024/03/01 08:14:27;;;;;;;99.05;44.42;;;5.00;99.90;;;;;;7605871;19;20104;-74
2024/03/01 08:17:00;;;;;;;108.97;46.35;;;5.10;99.90;;;;;;7610056;19;20030;-75
2024/03/01 08:19:38;;;;;;;106.65;43.65;;;5.20;99.90;;;;;;7604508;19;20022;-74
2024/03/01 08:22:15;;;;;;;99.47;45.08;;;5.30;99.90;;;;;;7614900;19;20014;-74
2024/03/01 08:24:49;;;;;;;102.85;44.65;;;5.40;99.90;;;;;;7603758;19;20593;-75
2024/03/01 08:27:28;;;;;;;106.97;45.67;;;5.50;99.90;;;;;;7612733;19;20018;-74
2024/03/01 08:30:01;;;;;;;111.63;45.30;;;5.50;99.90;;;;;;7614832;19;20022;-72
2024/03/01 08:32:42;;;;;;;97.65;42.88;;;5.60;99.90;;;;;;7612871;19;20010;-73
2024/03/01 08:35:16;;;;;;;93.93;41.75;;;5.60;99.90;;;;;;7583282;19;20119;-73
2024/03/01 08:37:49;;;;;;;103.20;43.97;;;5.70;99.90;;;;;;7607385;19;20034;-73
2024/03/01 08:40:33;;;;;;;95.93;44.55;;;5.80;99.90;;;;;;7610228;19;20038;-73
2024/03/01 08:43:06;;;;;;;106.15;44.40;;;5.90;99.90;;;;;;7586763;19;20101;-74
2024/03/01 08:45:43;;;;;;;98.83;43.17;;;5.90;99.90;;;;;;7612939;19;20015;-73
2024/03/01 08:48:19;;;;;;;88.25;41.28;;;6.00;99.90;;;;;;7606971;19;20090;-73
2024/03/01 08:50:52;;;;;;;99.75;42.95;;;6.10;99.90;;;;;;7611306;19;20092;-73
2024/03/01 08:53:53;;;;;;;101.57;44.78;;;6.20;99.90;;;;;;7614353;19;20097;-75
2024/03/01 08:56:37;;;;;;;103.70;44.35;;;6.30;99.90;;;;;;7617369;19;20208;-74
2024/03/01 08:59:36;;;;;;;99.40;42.92;;;6.30;99.90;;;;;;7613261;19;20018;-75
2024/03/01 09:02:26;;;;;;;104.03;43.70;;;6.40;99.90;;;;;;7614216;19;20025;-73
2024/03/01 09:04:58;;;;;;;95.40;43.35;;;6.50;99.90;;;;;;7606756;19;20031;-74
2024/03/01 09:07:31;;;;;;;94.43;41.25;;;6.50;99.90;;;;;;7615047;19;20035;-73
2024/03/01 09:10:20;;;;;;;102.47;43.80;;;6.60;99.90;;;;;;7608372;19;20014;-72
2024/03/01 09:12:53;;;;;;;101.20;42.10;;;6.70;99.90;;;;;;7609813;19;20608;-73
2024/03/01 09:15:27;;;;;;;101.63;42.60;;;6.80;99.90;;;;;;7606964;19;21280;-73
2024/03/01 09:17:59;;;;;;;98.97;44.08;;;6.90;99.90;;;;;;7606130;19;20875;-73
2024/03/01 09:20:34;;;;;;;99.63;42.88;;;6.90;99.90;;;;;;7610661;19;20015;-73
2024/03/01 09:23:12;;;;;;;96.00;42.60;;;7.10;99.90;;;;;;7599739;19;20044;-73
2024/03/01 09:25:47;;;;;;;96.22;43.15;;;7.10;99.90;;;;;;7595410;19;20051;-74
2024/03/01 09:28:21;;;;;;;92.88;44.58;;;7.10;99.90;;;;;;7608018;19;20082;-74
2024/03/01 09:30:54;;;;;;;;;;;7.10;99.90;;;;;;7587206;19;20250;-72
2024/03/01 09:33:27;;;;;;;98.72;41.67;;;7.20;99.90;;;;;;7601849;19;19927;-74
2024/03/01 09:35:59;;;;;;;93.65;40.92;;;7.30;99.90;;;;;;7608267;19;20015;-75
2024/03/01 09:38:32;;;;;;;95.38;44.90;;;7.40;99.90;;;;;;7608946;19;20007;-75
2024/03/01 09:41:16;;;;;;;101.70;43.67;;;7.50;99.90;;;;;;7603627;19;20504;-74
2024/03/01 09:44:00;;;;;;;87.65;40.72;;;7.60;99.90;;;;;;7612247;19;20018;-74
2024/03/01 09:46:58;;;;;;;93.93;42.30;;;7.70;99.90;;;;;;7607859;19;20627;-73
2024/03/01 09:49:49;;;;;;;95.15;43.05;;;7.80;99.90;;;;;;7604074;19;20047;-73
2024/03/01 09:52:47;;;;;;;97.90;42.10;;;7.90;99.90;;;;;;7610411;19;20033;-73
2024/03/01 09:55:31;;;;;;;97.47;43.15;;;8.00;99.90;;;;;;7594835;19;20011;-73
2024/03/01 09:58:21;;;;;;;92.15;41.40;;;8.00;99.90;;;;;;7608321;19;20030;-73
2024/03/01 10:01:01;;;;;;;95.28;41.45;;;8.10;99.90;;;;;;7611500;19;20485;-74
2024/03/01 10:03:59;;;;;;;91.90;41.53;;;8.30;99.90;;;;;;7607584;19;20033;-73
2024/03/01 10:07:08;;;;;;;91.47;42.17;;;8.30;99.90;;;;;;7603573;19;20014;-73
2024/03/01 10:09:43;;;;;;;95.43;42.15;;;8.40;99.90;;;;;;7578284;19;20022;-73
2024/03/01 10:12:18;;;;;;;90.13;40.45;;;8.40;99.90;;;;;;7607654;19;20396;-74
2024/03/01 10:15:01;;;;;;;94.40;42.35;;;8.50;99.90;;;;;;7608467;19;20026;-73
2024/03/01 10:17:58;;;;;;;87.72;39.78;;;8.60;99.90;;;;;;7609844;19;20027;-73
2024/03/01 10:20:50;;;;;;;94.60;40.70;;;8.60;99.90;;;;;;7591576;19;20539;-73
2024/03/01 10:23:41;;;;;;;91.47;40.35;;;8.60;99.90;;;;;;7604481;19;20026;-72
2024/03/01 10:26:27;;;;;;;85.95;38.97;;;8.70;99.90;;;;;;7606535;19;20031;-72
2024/03/01 10:29:39;;;;;;;91.15;41.13;;;8.70;99.90;;;;;;7606671;19;20046;-73
2024/03/01 10:32:45;;;;;;;94.25;40.60;;;8.80;99.90;;;;;;7601810;19;20029;-73
2024/03/01 10:35:19;;;;;;;88.25;40.63;;;8.80;99.90;;;;;;7597654;19;20018;-73
2024/03/01 10:38:14;;;;;;;;;;;8.90;99.90;;;;;;7611459;19;20022;-73
2024/03/01 10:41:33;;;;;;;88.90;39.83;;;9.00;99.90;;;;;;7601379;19;19933;-73
2024/03/01 10:44:35;;;;;;;80.47;38.42;;;9.00;99.90;;;;;;7600312;19;20626;-73
2024/03/01 10:47:21;;;;;;;85.07;36.83;;;9.10;99.90;;;;;;7604678;19;21415;-73
2024/03/01 10:50:12;;;;;;;79.60;37.42;;;9.20;99.90;;;;;;7599075;19;20033;-73
2024/03/01 10:53:09;;;;;;;78.20;36.65;;;9.20;99.90;;;;;;7606825;19;20022;-72
2024/03/01 10:55:48;;;;;;;78.13;36.78;;;9.20;99.90;;;;;;7606381;19;20562;-75
2024/03/01 10:58:29;;;;;;;79.30;36.53;;;9.20;99.90;;;;;;7599999;19;20022;-74
2024/03/01 11:01:25;;;;;;;71.15;35.50;;;9.30;99.90;;;;;;7606150;19;21502;-75
2024/03/01 11:04:18;;;;;;;75.20;34.20;;;9.30;99.90;;;;;;7605771;19;20731;-73
2024/03/01 11:07:35;;;;;;;71.82;34.50;;;9.40;99.90;;;;;;7607926;19;20019;-73
2024/03/01 11:10:26;;;;;;;72.18;34.28;;;9.50;99.90;;;;;;7599701;19;20360;-75
2024/03/01 11:13:04;;;;;;;65.63;31.30;;;9.40;99.90;;;;;;7608372;19;20390;-74
2024/03/01 11:15:37;;;;;;;73.05;34.20;;;9.40;99.90;;;;;;7604212;19;20548;-74
2024/03/01 11:18:14;;;;;;;69.50;32.70;;;9.40;99.90;;;;;;7605435;19;20018;-74
2024/03/01 11:20:57;;;;;;;71.50;33.70;;;9.40;99.90;;;;;;7605826;19;20060;-74
2024/03/01 11:23:47;;;;;;;69.15;34.22;;;9.40;99.90;;;;;;7595710;19;20025;-74
2024/03/01 11:26:27;;;;;;;78.50;32.30;;;9.40;99.90;;;;;;7604701;19;20018;-74
2024/03/01 11:29:04;;;;;;;68.80;31.15;;;9.40;99.90;;;;;;7606884;19;21037;-74
2024/03/01 11:31:38;;;;;;;65.78;30.27;;;9.30;99.90;;;;;;7603304;19;20457;-74
2024/03/01 11:34:24;;;;;;;64.53;30.92;;;9.40;99.90;;;;;;7602716;19;20028;-73
2024/03/01 11:37:10;;;;;;;61.75;29.27;;;9.40;99.90;;;;;;7570455;19;20030;-74
2024/03/01 11:40:05;;;;;;;59.60;28.23;;;9.40;99.90;;;;;;7581995;19;20051;-74
2024/03/01 11:43:27;;;;;;;62.55;28.27;;;9.40;99.90;;;;;;7585174;19;20022;-74
2024/03/01 11:46:45;;;;;;;56.65;26.33;;;9.40;99.90;;;;;;7575756;19;20102;-74
2024/03/01 11:49:30;;;;;;;63.58;28.77;;;9.50;99.90;;;;;;7580748;19;20023;-73
2024/03/01 11:52:34;;;;;;;60.70;27.88;;;9.60;99.90;;;;;;7584238;19;20911;-74
2024/03/01 11:55:22;;;;;;;;;;;9.70;99.90;;;;;;7598759;19;20018;-72
2024/03/01 11:58:19;;;;;;;54.90;26.65;;;9.80;99.90;;;;;;7590768;19;20544;-73
2024/03/01 12:01:16;;;;;;;57.80;27.02;;;9.70;99.90;;;;;;7590684;19;20869;-73
2024/03/01 12:04:03;;;;;;;52.33;26.08;;;9.70;99.90;;;;;;7587268;19;20010;-72
2024/03/01 12:06:51;;;;;;;50.83;24.63;;;9.80;99.90;;;;;;7590118;19;20025;-72
2024/03/01 12:09:44;;;;;;;55.22;24.50;;;9.80;99.90;;;;;;7594975;19;21659;-74
2024/03/01 12:12:47;;;;;;;53.67;24.75;;;9.80;99.90;;;;;;7602020;19;20025;-74
2024/03/01 12:15:42;;;;;;;55.33;24.60;;;9.80;99.90;;;;;;7590191;19;20022;-74
2024/03/01 12:18:29;;;;;;;50.97;25.85;;;9.70;99.90;;;;;;7560550;19;26455;-75
2024/03/01 12:21:10;;;;;;;52.20;25.45;;;9.70;99.90;;;;;;7600844;19;20019;-72
2024/03/01 12:23:52;;;;;;;48.88;23.80;;;9.60;99.90;;;;;;7582423;19;20018;-72
2024/03/01 12:26:32;;;;;;;48.95;23.48;;;9.60;99.90;;;;;;7582612;19;20713;-73
2024/03/01 12:29:29;;;;;;;46.63;22.48;;;9.60;99.90;;;;;;7586973;19;20014;-72
2024/03/01 12:32:41;;;;;;;47.47;21.80;;;9.50;99.90;;;;;;7577852;19;21973;-73
2024/03/01 12:35:39;;;;;;;42.15;21.35;;;9.50;99.90;;;;;;7577715;19;20048;-73
2024/03/01 12:38:31;;;;;;;43.97;20.85;;;9.50;99.90;;;;;;7582510;19;20057;-73
2024/03/01 12:41:10;;;;;;;44.03;21.35;;;9.50;99.90;;;;;;7570989;19;20642;-76
2024/03/01 12:44:02;;;;;;;45.33;20.70;;;9.50;99.90;;;;;;7576958;19;20051;-73
2024/03/01 12:47:02;;;;;;;39.50;18.92;;;9.50;99.90;;;;;;7573371;19;20018;-73
2024/03/01 12:49:41;;;;;;;40.67;19.02;;;9.50;99.90;;;;;;7595070;19;20018;-74
2024/03/01 12:52:41;;;;;;;44.40;19.13;;;9.60;99.90;;;;;;7598515;19;20026;-74
2024/03/01 12:55:26;;;;;;;31.92;16.88;;;9.60;99.90;;;;;;7599819;19;20011;-72
2024/03/01 12:58:15;;;;;;;36.35;17.23;;;9.60;99.90;;;;;;7588152;19;20029;-72
2024/03/01 13:01:09;;;;;;;37.10;16.38;;;9.50;99.90;;;;;;7587897;19;20025;-73
2024/03/01 13:03:49;;;;;;;32.08;16.38;;;9.60;99.90;;;;;;7595835;19;20026;-73
2024/03/01 13:06:25;;;;;;;34.38;15.43;;;9.60;99.90;;;;;;7590680;19;20011;-73
2024/03/01 13:09:04;;;;;;;29.85;15.40;;;9.60;99.90;;;;;;7574307;19;20022;-73
2024/03/01 13:11:38;;;;;;;32.17;14.85;;;9.60;99.90;;;;;;7595018;19;20319;-75
2024/03/01 13:14:17;;;;;;;;;;;9.60;99.90;;;;;;7593539;19;20014;-75
2024/03/01 13:16:58;;;;;;;35.45;15.07;;;9.60;99.90;;;;;;7608985;19;20781;-76
2024/03/01 13:19:41;;;;;;;30.40;14.30;;;9.50;99.90;;;;;;7593762;19;20552;-75
2024/03/01 13:22:17;;;;;;;28.45;14.00;;;9.50;99.90;;;;;;7606093;19;20444;-74
2024/03/01 13:25:28;;;;;;;34.45;15.48;;;9.40;99.90;;;;;;7602588;19;20007;-74
2024/03/01 13:28:16;;;;;;;31.42;16.00;;;9.40;99.90;;;;;;7588979;19;20113;-75